Terminal Aerodrome Forecast
Issued by NWS

Home | Current Version | Previous Version | Text Only | Print | Product List | Glossary On
Versions: 1 2 3 4 5 6 7 8 9 10 11 12 13
692
FTAK31 PAJN 251404 AAA
TAFAWG
TAF AMD
PAWG 251404Z 2514/2612 VRB04KT P6SM OVC011
      TEMPO 2514/2517 5SM BR BKN005
     FM251700 10006KT P6SM BKN025
     FM252100 VRB05KT P6SM SCT060 SCT200
     FM260700 12009KT P6SM -RA BKN050=

USA.gov is the U.S. government's official web portal to all federal, state and local government web resources and services.